aviador You're here:

KMPO Decoded Metar

MT. POCONO in PA, USA
Report Time2017-11-23 19:53:00
UTC Time2017-11-23 20:33:13
Flight Rules vfr VFR
Wind320° at 06 kt
W.Decomp.*RWY 31: 5.5 kt HW 2.3 kt RCW
RWY 05: 1.3 kt HW 5.8 kt LCW
W.Rank320° ranks 2
Current wind is below 320° avg. (9.2)
Visibility9999 m
Phenomena:N/A
Clouds:N/A
Expected CloudBase > 3,600 ft AGL from Temp-Dew spread
CeilingNone
Temp01°C (ISA -10)
Dew Point-8°C (51% RH)
AAT-4.1°C
QNH1014 hPa
Density Alt669 ft
Elevation1,893 ft
Report Wrong Elevation
Raw Report
METAR KMPO 231953Z AUTO 32006KT 10SM CLR 01/M08 A2994 RMK AO2 SLP163
T00111078=

Extra information for KMPO:More info

Metar Taf Metar & Taf Last 4 Metars F.Rules Stats Wind Profile Meteogram Temp Stats Airport Information Weather charts Add Link Nearby VenuesMetar ALERT Operation Metar Decoded Social comments

AIRNAV info for KMPO